Time;durP1;ratioP1;P1;durP2;ratioP2;P2;SDS_P1;SDS_P2;PMS_P1;PMS_P2;Temp;Humidity;BMP_temperature;BMP_pressure;BME280_temperature;BME280_humidity;BME280_pressure;Samples;Min_cycle;Max_cycle;Signal;HPM_P1;HPM_P2
2022/04/01 00:00:19;;;;;;;13.27;11.90;;;;;;;5.34;100.00;97571.34;4980635;28;20183;-77
2022/04/01 00:02:47;;;;;;;14.43;12.35;;;;;;;5.22;100.00;97573.03;4980561;28;20294;-77
2022/04/01 00:05:14;;;;;;;14.55;12.80;;;;;;;5.22;100.00;97583.69;4980696;28;20215;-76
2022/04/01 00:07:41;;;;;;;13.43;12.02;;;;;;;5.26;100.00;97587.03;4978818;28;20578;-76
2022/04/01 00:10:09;;;;;;;15.10;13.57;;;;;;;5.03;100.00;97586.78;4984100;28;20219;-77
2022/04/01 00:12:41;;;;;;;15.70;13.98;;;;;;;4.88;100.00;97582.47;4980953;28;20210;-77
2022/04/01 00:15:09;;;;;;;15.00;13.55;;;;;;;4.87;100.00;97586.09;4985159;28;20570;-76
2022/04/01 00:17:36;;;;;;;16.10;14.35;;;;;;;4.89;100.00;97586.88;4982195;28;20187;-75
2022/04/01 00:20:03;;;;;;;15.80;14.10;;;;;;;5.00;100.00;97593.19;4980250;28;20192;-77
2022/04/01 00:22:30;;;;;;;16.50;13.77;;;;;;;5.05;100.00;97590.19;4979460;28;20196;-77
2022/04/01 00:24:57;;;;;;;16.70;14.38;;;;;;;4.96;100.00;97585.50;4988732;28;20202;-77
2022/04/01 00:27:24;;;;;;;14.00;12.60;;;;;;;4.93;100.00;97588.34;4980485;28;20199;-77
2022/04/01 00:29:52;;;;;;;15.23;13.48;;;;;;;5.07;100.00;97592.78;4987087;28;20238;-76
2022/04/01 00:32:19;;;;;;;15.77;13.50;;;;;;;5.02;100.00;97590.41;4983932;28;20297;-77
2022/04/01 00:34:46;;;;;;;14.75;13.15;;;;;;;4.94;100.00;97587.41;4981960;28;20998;-76
2022/04/01 00:37:12;;;;;;;15.88;14.02;;;;;;;5.02;100.00;97585.09;4988995;28;20184;-76
2022/04/01 00:39:39;;;;;;;16.65;13.38;;;;;;;4.97;100.00;97588.03;4982759;28;20863;-77
2022/04/01 00:42:06;;;;;;;16.45;14.70;;;;;;;4.99;100.00;97582.59;4980104;28;20207;-75
2022/04/01 00:44:34;;;;;;;18.02;15.00;;;;;;;4.78;100.00;97577.75;4984103;28;20963;-76
2022/04/01 00:47:05;;;;;;;15.95;13.95;;;;;;;4.97;100.00;97574.69;4986435;28;20208;-76
2022/04/01 00:49:33;;;;;;;17.70;14.15;;;;;;;5.14;100.00;97576.25;4987351;28;20198;-77
2022/04/01 00:52:02;;;;;;;17.42;14.98;;;;;;;5.01;100.00;97575.34;4979210;28;20242;-77
2022/04/01 00:54:29;;;;;;;15.32;13.45;;;;;;;5.09;100.00;97583.72;4985059;28;20196;-77
2022/04/01 00:56:55;;;;;;;17.58;15.20;;;;;;;5.13;100.00;97577.22;4984365;28;20538;-76
2022/04/01 00:59:22;;;;;;;14.40;12.90;;;;;;;5.19;100.00;97581.25;4982146;28;20675;-76
2022/04/01 01:01:50;;;;;;;15.40;13.68;;;;;;;5.09;100.00;97574.81;4986574;28;20224;-78
2022/04/01 01:04:20;;;;;;;15.45;13.73;;;;;;;5.17;100.00;97580.50;4993753;28;20185;-78
2022/04/01 01:06:48;;;;;;;18.23;14.10;;;;;;;5.17;100.00;97578.69;4984819;28;20283;-78
2022/04/01 01:09:15;;;;;;;18.48;13.52;;;;;;;5.27;100.00;97578.06;4983842;28;20195;-78
2022/04/01 01:11:44;;;;;;;16.25;14.30;;;;;;;4.95;100.00;97578.44;4981716;28;20220;-77
2022/04/01 01:14:13;;;;;;;16.00;13.90;;;;;;;5.12;100.00;97571.97;4985205;28;20554;-77
2022/04/01 01:16:42;;;;;;;17.50;14.45;;;;;;;5.31;100.00;97571.53;4991399;28;20622;-77
2022/04/01 01:19:11;;;;;;;16.00;13.30;;;;;;;5.16;100.00;97582.31;4983669;28;20362;-75
2022/04/01 01:21:40;;;;;;;17.63;14.10;;;;;;;5.08;100.00;97579.31;4991270;28;20227;-78
2022/04/01 01:24:11;;;;;;;17.13;14.55;;;;;;;5.11;100.00;97580.91;4983900;28;20202;-77
2022/04/01 01:26:40;;;;;;;17.17;14.60;;;;;;;5.18;100.00;97577.75;4994886;28;20188;-77
2022/04/01 01:29:07;;;;;;;17.23;14.13;;;;;;;5.12;100.00;97577.31;4986951;28;20195;-77
2022/04/01 01:31:34;;;;;;;18.83;14.57;;;;;;;5.26;100.00;97571.03;4978949;28;20220;-76
2022/04/01 01:34:01;;;;;;;17.85;14.85;;;;;;;5.06;100.00;97570.56;4984111;28;20484;-76
2022/04/01 01:36:30;;;;;;;17.63;14.00;;;;;;;4.93;100.00;97567.00;4979146;28;20188;-78
2022/04/01 01:38:56;;;;;;;18.05;14.05;;;;;;;4.96;100.00;97577.50;4983200;28;20618;-77
2022/04/01 01:41:25;;;;;;;18.58;14.10;;;;;;;5.11;100.00;97576.47;4989848;28;20195;-77
2022/04/01 01:43:53;;;;;;;16.10;13.25;;;;;;;5.11;100.00;97573.78;4986543;28;20565;-77
2022/04/01 01:46:20;;;;;;;17.17;13.50;;;;;;;5.09;100.00;97572.16;4988019;28;20623;-77
2022/04/01 01:48:47;;;;;;;14.77;12.75;;;;;;;4.79;100.00;97574.16;4985502;28;20210;-75
2022/04/01 01:56:47;;;;;;;17.42;15.10;;;;;;;5.04;100.00;97572.47;4979352;28;20207;-78
2022/04/01 01:59:16;;;;;;;16.80;14.13;;;;;;;5.12;100.00;97571.97;4981105;28;20199;-76
2022/04/01 02:01:43;;;;;;;14.43;12.48;;;;;;;5.14;100.00;97568.22;4976726;28;20237;-77
2022/04/01 02:04:11;;;;;;;15.95;12.57;;;;;;;5.03;100.00;97565.44;4982427;28;20193;-76
2022/04/01 02:06:39;;;;;;;16.98;13.20;;;;;;;5.04;100.00;97572.47;4990089;28;20202;-76
2022/04/01 02:09:06;;;;;;;16.38;13.63;;;;;;;4.85;100.00;97572.03;4985215;28;20204;-76
2022/04/01 02:11:33;;;;;;;15.38;13.13;;;;;;;4.68;100.00;97566.00;4985884;28;20314;-76
2022/04/01 02:13:59;;;;;;;17.63;13.40;;;;;;;4.71;100.00;97560.47;4985950;28;20221;-76
2022/04/01 02:16:28;;;;;;;17.20;13.77;;;;;;;4.63;100.00;97560.13;4985074;28;20225;-77
2022/04/01 02:18:54;;;;;;;16.00;13.50;;;;;;;4.71;100.00;97565.81;4993598;28;20188;-77
2022/04/01 02:21:21;;;;;;;17.10;14.10;;;;;;;4.83;100.00;97557.94;4985301;28;20191;-76
2022/04/01 02:23:51;;;;;;;15.45;13.32;;;;;;;4.82;100.00;97565.09;4979178;28;20207;-76
2022/04/01 02:26:18;;;;;;;17.13;14.20;;;;;;;4.79;100.00;97567.94;4992712;28;20194;-76
2022/04/01 02:28:45;;;;;;;17.35;14.10;;;;;;;4.73;100.00;97568.38;4988232;28;20223;-77
2022/04/01 02:31:12;;;;;;;18.27;14.13;;;;;;;4.59;100.00;97566.63;4981368;28;20218;-77
2022/04/01 02:33:40;;;;;;;16.77;13.70;;;;;;;4.65;100.00;97576.00;4982029;28;20190;-76
2022/04/01 02:36:10;;;;;;;17.25;15.10;;;;;;;4.87;100.00;97580.78;4982085;28;20287;-77
2022/04/01 02:38:38;;;;;;;17.42;13.88;;;;;;;4.79;100.00;97574.16;4990307;28;20196;-76
2022/04/01 02:41:06;;;;;;;17.02;14.20;;;;;;;4.74;100.00;97572.72;4983477;28;20192;-76
2022/04/01 02:43:33;;;;;;;16.65;14.15;;;;;;;4.60;100.00;97579.00;4982076;28;21022;-78
2022/04/01 02:46:00;;;;;;;15.80;13.48;;;;;;;4.75;100.00;97572.66;4986824;28;20194;-77
2022/04/01 02:48:26;;;;;;;17.00;13.60;;;;;;;4.73;100.00;97582.56;4981874;28;20188;-77
2022/04/01 02:50:54;;;;;;;17.48;14.45;;;;;;;4.97;100.00;97576.53;4987282;28;20329;-76
2022/04/01 02:53:21;;;;;;;16.85;14.02;;;;;;;4.87;100.00;97576.28;4990083;28;20307;-77
2022/04/01 02:55:47;;;;;;;16.10;14.40;;;;;;;4.84;100.00;97576.50;4983549;28;20193;-75
2022/04/01 02:58:14;;;;;;;17.17;13.88;;;;;;;4.80;100.00;97588.34;4976877;28;20198;-76
2022/04/01 03:00:41;;;;;;;18.85;15.52;;;;;;;4.68;100.00;97578.47;4992289;28;20186;-77
2022/04/01 03:03:09;;;;;;;20.90;15.10;;;;;;;4.70;100.00;97579.22;4984533;28;20239;-76
2022/04/01 03:05:36;;;;;;;18.90;14.13;;;;;;;4.71;100.00;97579.13;4985843;28;20195;-76
2022/04/01 03:08:06;;;;;;;17.92;14.73;;;;;;;4.62;100.00;97581.56;4977156;28;20286;-77
2022/04/01 03:10:32;;;;;;;17.45;14.65;;;;;;;4.76;100.00;97582.34;4984239;28;20206;-77
2022/04/01 03:13:00;;;;;;;19.20;15.07;;;;;;;4.82;100.00;97575.75;4977672;28;20202;-77
2022/04/01 03:15:28;;;;;;;16.92;13.70;;;;;;;4.88;100.00;97580.66;4983786;28;20193;-77
2022/04/01 03:17:55;;;;;;;20.10;13.70;;;;;;;4.63;100.00;97586.78;4985332;28;20291;-77
2022/04/01 03:20:22;;;;;;;17.15;15.10;;;;;;;4.85;100.00;97578.19;4982001;28;20222;-77
2022/04/01 03:22:50;;;;;;;19.13;14.63;;;;;;;4.80;100.00;97580.34;4980564;28;20189;-76
2022/04/01 03:25:20;;;;;;;17.20;13.73;;;;;;;4.80;100.00;97572.34;4989798;28;20287;-76
2022/04/01 03:27:46;;;;;;;21.35;14.23;;;;;;;4.83;100.00;97574.78;4987147;28;20204;-76
2022/04/01 03:30:14;;;;;;;19.88;15.15;;;;;;;4.72;100.00;97586.16;4990163;28;20204;-77
2022/04/01 03:32:42;;;;;;;17.75;14.90;;;;;;;4.83;100.00;97574.78;4985240;28;20219;-76
2022/04/01 03:35:12;;;;;;;18.58;15.18;;;;;;;4.73;100.00;97579.03;4990479;28;20193;-76
2022/04/01 03:37:38;;;;;;;19.08;14.98;;;;;;;4.75;100.00;97585.97;4977963;28;20549;-76
2022/04/01 03:40:06;;;;;;;18.25;14.52;;;;;;;4.80;100.00;97581.19;4983099;28;20198;-79
2022/04/01 03:42:34;;;;;;;18.98;14.85;;;;;;;4.96;100.00;97586.34;4981221;28;20707;-78
2022/04/01 03:45:03;;;;;;;17.00;14.15;;;;;;;5.17;100.00;97591.19;4987562;28;20641;-77
2022/04/01 03:47:38;;;;;;;19.10;15.15;;;;;;;5.24;100.00;97584.44;4981169;28;20192;-77
2022/04/01 03:50:08;;;;;;;18.20;14.15;;;;;;;5.12;100.00;97579.97;4981523;28;20672;-77
2022/04/01 03:52:35;;;;;;;18.15;14.35;;;;;;;5.19;100.00;97584.78;4990408;28;20672;-77
2022/04/01 03:55:05;;;;;;;18.58;13.65;;;;;;;4.96;100.00;97583.66;4975509;28;20577;-75
2022/04/01 03:57:36;;;;;;;16.33;13.55;;;;;;;4.78;100.00;97583.09;4980592;28;20220;-76
2022/04/01 04:00:07;;;;;;;17.95;14.50;;;;;;;4.74;100.00;97592.25;4980635;28;20200;-76
2022/04/01 04:02:35;;;;;;;19.88;15.00;;;;;;;4.79;100.00;97592.81;4978539;28;20252;-76
2022/04/01 04:05:02;;;;;;;17.15;14.32;;;;;;;4.80;100.00;97589.19;4983678;28;20193;-76
2022/04/01 04:07:31;;;;;;;18.23;14.82;;;;;;;4.90;100.00;97591.22;4983152;28;20199;-76
2022/04/01 04:09:59;;;;;;;20.75;15.05;;;;;;;4.86;100.00;97589.72;4984001;28;20283;-76
2022/04/01 04:12:30;;;;;;;17.55;14.32;;;;;;;4.63;100.00;97605.44;4986731;28;20944;-77
2022/04/01 04:14:58;;;;;;;18.23;14.25;;;;;;;4.63;100.00;97599.25;4992236;28;20186;-76
2022/04/01 04:17:36;;;;;;;19.20;15.40;;;;;;;4.74;100.00;97592.25;4982313;28;20708;-76
2022/04/01 04:20:08;;;;;;;21.92;15.23;;;;;;;4.70;100.00;97601.41;4991132;28;20638;-78
2022/04/01 04:22:46;;;;;;;17.65;13.95;;;;;;;4.74;100.00;97605.56;4988994;28;20199;-76
2022/04/01 04:25:14;;;;;;;22.08;16.50;;;;;;;4.78;100.00;97600.91;4988587;28;20620;-77
2022/04/01 04:27:52;;;;;;;19.80;15.23;;;;;;;4.98;100.00;97595.09;4989393;28;20219;-77
2022/04/01 04:30:24;;;;;;;21.40;14.60;;;;;;;5.03;100.00;97600.13;4993402;28;20257;-76
2022/04/01 04:32:56;;;;;;;19.05;14.70;;;;;;;4.91;100.00;97592.97;4987625;28;20638;-75
2022/04/01 04:35:23;;;;;;;16.73;14.85;;;;;;;5.00;100.00;97597.66;4993108;28;20183;-76
2022/04/01 04:37:55;;;;;;;21.38;16.02;;;;;;;4.94;100.00;97604.25;4987123;28;20616;-76
2022/04/01 04:40:21;;;;;;;24.15;16.13;;;;;;;4.89;100.00;97606.38;4987353;28;20204;-76
2022/04/01 04:42:48;;;;;;;18.55;16.23;;;;;;;4.62;100.00;97609.06;4979197;28;20276;-76
2022/04/01 04:45:17;;;;;;;23.13;16.25;;;;;;;4.68;100.00;97623.78;4983031;28;20633;-78
2022/04/01 04:47:47;;;;;;;17.67;14.95;;;;;;;4.80;100.00;97620.31;4991147;28;20206;-78
2022/04/01 04:50:13;;;;;;;20.38;15.30;;;;;;;4.75;100.00;97625.97;4982197;28;20190;-76
2022/04/01 04:52:41;;;;;;;21.85;16.42;;;;;;;4.69;100.00;97623.69;4987030;28;20214;-76
2022/04/01 04:55:09;;;;;;;21.17;15.85;;;;;;;4.72;100.00;97628.81;4982513;28;20205;-78
2022/04/01 04:57:39;;;;;;;20.17;15.68;;;;;;;4.73;100.00;97633.19;4991432;28;20198;-75
2022/04/01 05:00:08;;;;;;;21.13;15.77;;;;;;;4.85;100.00;97641.34;4991421;28;20210;-77
2022/04/01 05:02:44;;;;;;;20.48;16.20;;;;;;;4.93;100.00;97626.56;4976535;28;20226;-77
2022/04/01 05:05:22;;;;;;;20.00;16.48;;;;;;;4.92;100.00;97631.97;4991166;28;20196;-77
2022/04/01 05:08:00;;;;;;;23.30;16.50;;;;;;;4.99;100.00;97633.28;4985841;28;20205;-77
2022/04/01 05:10:36;;;;;;;23.48;17.58;;;;;;;5.03;100.00;97639.28;4984666;28;20607;-76
2022/04/01 05:13:09;;;;;;;22.38;18.02;;;;;;;4.97;100.00;97645.84;4981440;28;20568;-78
2022/04/01 05:15:39;;;;;;;24.15;18.20;;;;;;;5.25;100.00;97646.69;4986412;28;20196;-77
2022/04/01 05:18:12;;;;;;;27.75;19.58;;;;;;;4.90;100.00;97652.56;4980083;28;20290;-78
2022/04/01 05:20:47;;;;;;;30.08;20.90;;;;;;;5.08;100.00;97651.34;4985620;28;20634;-76
2022/04/01 05:23:16;;;;;;;28.60;21.67;;;;;;;4.86;100.00;97653.72;4981891;28;20189;-77
2022/04/01 05:25:45;;;;;;;29.20;21.77;;;;;;;4.66;100.00;97657.69;4992728;28;20217;-77
2022/04/01 05:28:22;;;;;;;32.70;22.85;;;;;;;4.57;100.00;97669.81;4981118;28;20205;-77
2022/04/01 05:30:54;;;;;;;32.05;21.85;;;;;;;4.40;100.00;97662.88;4983014;28;20190;-76
2022/04/01 05:33:26;;;;;;;31.92;22.73;;;;;;;4.35;100.00;97670.31;4990260;28;20229;-78
2022/04/01 05:35:54;;;;;;;35.08;23.85;;;;;;;4.30;100.00;97673.28;4978811;28;20197;-79
2022/04/01 05:38:22;;;;;;;32.40;23.08;;;;;;;4.24;100.00;97679.00;4978615;28;20201;-77
2022/04/01 05:40:50;;;;;;;32.95;23.00;;;;;;;4.16;100.00;97676.81;4990292;28;20192;-78
2022/04/01 05:43:17;;;;;;;33.38;22.98;;;;;;;4.17;100.00;97680.34;4988071;28;20191;-77
2022/04/01 05:45:44;;;;;;;31.90;23.65;;;;;;;4.17;100.00;97680.34;4982144;28;20202;-79
2022/04/01 05:48:11;;;;;;;32.95;23.67;;;;;;;4.30;100.00;97675.09;4985948;28;20187;-77
2022/04/01 05:50:38;;;;;;;36.65;22.98;;;;;;;4.22;100.00;97675.56;4986950;28;20204;-76
2022/04/01 05:53:08;;;;;;;33.95;23.65;;;;;;;4.08;100.00;97688.91;4993541;28;20202;-76
2022/04/01 05:55:36;;;;;;;38.72;24.83;;;;;;;4.11;100.00;97692.22;4984541;28;20602;-75
2022/04/01 05:58:04;;;;;;;34.72;24.02;;;;;;;3.99;100.00;97689.47;4983087;28;20287;-76
2022/04/01 06:00:41;;;;;;;34.58;23.80;;;;;;;4.07;100.00;97693.38;4984675;28;20236;-76
2022/04/01 06:03:36;;;;;;;37.83;23.90;;;;;;;4.09;100.00;97690.59;4986397;28;20235;-76
2022/04/01 06:06:09;;;;;;;32.13;22.77;;;;;;;4.06;100.00;97706.78;4976438;28;20703;-76
2022/04/01 06:08:48;;;;;;;34.88;24.80;;;;;;;4.11;100.00;97696.69;4982909;28;20614;-77
2022/04/01 06:11:22;;;;;;;31.90;22.90;;;;;;;4.06;100.00;97701.44;4989178;28;20191;-76
2022/04/01 06:14:03;;;;;;;34.58;23.25;;;;;;;4.16;100.00;97711.44;4982831;28;20347;-76
2022/04/01 06:16:35;;;;;;;36.25;23.92;;;;;;;4.21;100.00;97708.50;4981042;28;20220;-76
2022/04/01 06:19:16;;;;;;;40.67;24.40;;;;;;;4.39;100.00;97710.00;4986286;28;20202;-76
2022/04/01 06:21:47;;;;;;;34.20;24.08;;;;;;;4.28;100.00;97715.16;4974585;28;20211;-77
2022/04/01 06:24:27;;;;;;;35.55;24.58;;;;;;;4.19;100.00;97713.06;4981332;28;20551;-76
2022/04/01 06:26:58;;;;;;;37.20;25.08;;;;;;;4.17;100.00;97717.63;4989247;28;20301;-77
2022/04/01 06:29:38;;;;;;;36.83;24.15;;;;;;;4.30;100.00;97717.72;4985225;28;20197;-77
2022/04/01 06:32:08;;;;;;;32.60;23.17;;;;;;;4.43;100.00;97720.47;4985188;28;20211;-76
2022/04/01 06:34:51;;;;;;;35.72;23.45;;;;;;;4.33;100.00;97726.38;4985405;28;20194;-76
2022/04/01 06:37:22;;;;;;;35.45;24.85;;;;;;;4.38;100.00;97728.75;4981872;28;20629;-77
2022/04/01 06:40:02;;;;;;;39.42;25.63;;;;;;;4.35;100.00;97729.78;4974263;28;20226;-76
2022/04/01 06:42:32;;;;;;;33.03;23.63;;;;;;;4.55;100.00;97733.88;4976273;28;20194;-77
2022/04/01 06:44:59;;;;;;;35.40;23.77;;;;;;;4.52;100.00;97735.88;4976285;28;20279;-78
2022/04/01 06:47:25;;;;;;;35.05;23.40;;;;;;;4.58;100.00;97738.16;4984983;28;20196;-76
2022/04/01 06:49:52;;;;;;;36.55;25.80;;;;;;;4.54;100.00;97739.28;4977739;28;20534;-78
2022/04/01 06:52:19;;;;;;;35.83;23.25;;;;;;;4.51;100.00;97750.16;4989130;28;20692;-76
2022/04/01 06:54:46;;;;;;;35.30;24.85;;;;;;;4.33;100.00;97752.16;4979466;28;20297;-78
2022/04/01 06:57:15;;;;;;;39.75;26.02;;;;;;;4.42;100.00;97753.41;4983951;28;20202;-76
2022/04/01 06:59:41;;;;;;;38.28;26.02;;;;;;;4.32;100.00;97753.97;4980101;28;20190;-78
2022/04/01 07:02:08;;;;;;;41.33;24.25;;;;;;;4.35;100.00;97752.91;4981094;28;20220;-77
2022/04/01 07:04:35;;;;;;;35.80;24.40;;;;;;;4.25;100.00;97765.97;4984143;28;20196;-77
2022/04/01 07:07:01;;;;;;;39.92;25.58;;;;;;;4.29;100.00;97754.16;4992980;28;20204;-77
2022/04/01 07:09:28;;;;;;;41.25;27.73;;;;;;;4.47;100.00;97760.13;4991464;28;20254;-76
2022/04/01 07:11:55;;;;;;;39.60;26.35;;;;;;;4.49;100.00;97760.06;4983526;28;20187;-77
2022/04/01 07:14:23;;;;;;;38.63;26.17;;;;;;;4.39;100.00;97768.63;4981241;28;20192;-77
2022/04/01 07:16:49;;;;;;;36.28;27.00;;;;;;;4.40;100.00;97761.47;4981788;28;20209;-76
2022/04/01 07:19:16;;;;;;;39.63;26.52;;;;;;;4.35;100.00;97763.59;4984378;28;20195;-77
2022/04/01 07:21:43;;;;;;;38.78;26.63;;;;;;;4.32;100.00;97755.75;4990797;28;20198;-77
2022/04/01 07:24:09;;;;;;;43.28;28.15;;;;;;;4.22;100.00;97759.97;4992851;28;20636;-76
2022/04/01 07:26:36;;;;;;;40.65;27.98;;;;;;;4.36;100.00;97757.28;4992444;28;20209;-78
2022/04/01 07:29:03;;;;;;;42.33;28.27;;;;;;;4.28;100.00;97756.94;4992661;28;20190;-78
2022/04/01 07:34:21;;;;;;;39.70;26.60;;;;;;;4.37;100.00;97761.69;4992184;28;20202;-78
2022/04/01 07:36:48;;;;;;;45.63;28.77;;;;;;;4.59;100.00;97759.38;4991774;28;20219;-76
2022/04/01 07:39:15;;;;;;;44.15;27.50;;;;;;;4.49;100.00;97768.03;4992767;28;20195;-77
2022/04/01 07:41:42;;;;;;;41.58;26.98;;;;;;;4.32;100.00;97763.75;4991798;28;20220;-78
2022/04/01 07:44:09;;;;;;;41.00;27.17;;;;;;;4.15;100.00;97773.66;4991996;28;20487;-76
2022/04/01 07:46:37;;;;;;;46.25;28.65;;;;;;;4.29;100.00;97770.13;4992223;28;20204;-75
2022/04/01 07:49:03;;;;;;;44.83;28.77;;;;;;;4.29;100.00;97772.78;4992256;28;20533;-77
2022/04/01 07:51:30;;;;;;;47.80;30.15;;;;;;;4.23;100.00;97775.84;4992026;28;20555;-77
2022/04/01 07:53:56;;;;;;;44.25;29.83;;;;;;;4.38;100.00;97777.56;4991350;28;20208;-77
2022/04/01 07:56:30;;;;;;;44.67;29.27;;;;;;;4.26;100.00;97781.00;4991864;28;20624;-75
2022/04/01 07:58:56;;;;;;;48.83;31.80;;;;;;;4.48;100.00;97775.19;4991838;28;20191;-77
2022/04/01 08:01:23;;;;;;;51.65;31.95;;;;;;;4.53;100.00;97772.25;4991917;28;20247;-79
2022/04/01 08:03:55;;;;;;;49.85;29.80;;;;;;;4.61;100.00;97777.91;4993241;28;20203;-78
2022/04/01 08:06:22;;;;;;;45.47;30.55;;;;;;;4.53;100.00;97778.41;4992713;28;20189;-86
2022/04/01 08:08:48;;;;;;;49.72;31.10;;;;;;;4.63;100.00;97781.34;4992170;28;20203;-85
2022/04/01 08:11:15;;;;;;;48.60;30.67;;;;;;;4.48;100.00;97783.19;4992324;28;20282;-84
2022/04/01 08:13:41;;;;;;;48.20;31.23;;;;;;;4.36;100.00;97787.47;4991156;28;20560;-82
2022/04/01 08:16:10;;;;;;;45.78;27.75;;;;;;;4.50;100.00;97786.63;5000306;28;20297;-84
2022/04/01 08:18:37;;;;;;;49.00;31.35;;;;;;;4.66;100.00;97791.84;5011601;28;20207;-82
2022/04/01 08:21:05;;;;;;;51.20;31.17;;;;;;;4.47;100.00;97792.13;4995751;28;20655;-84
2022/04/01 08:23:34;;;;;;;50.17;30.15;;;;;;;4.53;100.00;97796.22;4991559;28;20198;-85
2022/04/01 08:26:01;;;;;;;45.25;31.50;;;;;;;4.55;100.00;97794.31;4991967;28;20220;-84
2022/04/01 08:28:27;;;;;;;43.95;28.45;;;;;;;4.43;100.00;97805.72;4991458;28;20210;-82
2022/04/01 08:30:54;;;;;;;48.03;31.67;;;;;;;4.44;100.00;97813.63;4991703;28;20197;-84
2022/04/01 08:33:20;;;;;;;51.00;29.35;;;;;;;4.46;100.00;97818.88;4991399;28;20236;-85
2022/04/01 08:35:47;;;;;;;48.15;30.85;;;;;;;4.56;100.00;97831.53;4991928;28;20192;-85
2022/04/01 08:38:15;;;;;;;46.03;29.63;;;;;;;4.27;100.00;97830.63;4991008;28;20628;-83
2022/04/01 08:40:42;;;;;;;46.80;30.52;;;;;;;4.42;100.00;97830.69;4991886;28;20653;-83
2022/04/01 08:43:09;;;;;;;45.70;28.98;;;;;;;4.49;100.00;97834.66;4986781;28;20191;-83
2022/04/01 08:45:37;;;;;;;52.88;32.92;;;;;;;4.50;100.00;97839.91;4973134;28;20202;-82
2022/04/01 08:48:06;;;;;;;43.38;28.23;;;;;;;4.84;100.00;97843.16;4984995;28;20198;-81
2022/04/01 08:50:33;;;;;;;41.30;28.10;;;;;;;4.72;100.00;97838.56;4992508;28;20639;-83
2022/04/01 08:52:59;;;;;;;39.88;28.90;;;;;;;4.71;100.00;97840.38;4992133;28;20213;-83
2022/04/01 08:55:27;;;;;;;39.53;27.02;;;;;;;5.26;100.00;97848.50;4988172;28;20214;-82
2022/04/01 08:57:54;;;;;;;36.40;24.95;;;;;;;5.36;100.00;97845.16;4977591;28;20216;-86
2022/04/01 09:00:36;;;;;;;31.05;21.55;;;;;;;5.40;100.00;97852.03;4992284;28;20548;-81
2022/04/01 09:03:06;;;;;;;29.95;20.75;;;;;;;5.74;100.00;97848.94;4994216;28;20235;-85
2022/04/01 09:05:32;;;;;;;28.30;20.02;;;;;;;5.69;100.00;97851.06;4993498;28;20201;-82
2022/04/01 09:08:01;;;;;;;25.15;18.98;;;;;;;6.11;100.00;97850.03;4994533;28;20206;-81
2022/04/01 09:10:29;;;;;;;22.60;17.40;;;;;;;6.39;100.00;97859.69;4989676;28;20199;-81
2022/04/01 09:12:56;;;;;;;22.02;16.20;;;;;;;6.57;100.00;97862.06;4994959;28;20227;-82
2022/04/01 09:15:23;;;;;;;24.73;17.00;;;;;;;6.41;100.00;97862.25;4995586;28;20283;-81
2022/04/01 09:17:51;;;;;;;20.02;15.75;;;;;;;6.38;100.00;97866.00;4995051;28;20203;-81
2022/04/01 09:20:18;;;;;;;19.17;15.05;;;;;;;6.38;100.00;97860.66;4993953;28;20570;-82
2022/04/01 09:22:45;;;;;;;21.23;15.60;;;;;;;6.76;100.00;97859.81;4994696;28;20553;-82
2022/04/01 09:25:14;;;;;;;23.25;16.30;;;;;;;6.96;100.00;97857.53;4994592;28;20524;-82
2022/04/01 09:27:45;;;;;;;22.88;16.90;;;;;;;6.78;100.00;97863.22;4994671;28;20188;-82
2022/04/01 09:30:14;;;;;;;31.65;22.65;;;;;;;6.94;100.00;97868.34;4994509;28;20192;-81
2022/04/01 09:32:43;;;;;;;22.40;15.23;;;;;;;6.84;100.00;97867.28;4994706;28;20207;-82
2022/04/01 09:35:11;;;;;;;19.65;15.25;;;;;;;6.83;100.00;97877.16;4994688;28;20225;-82
2022/04/01 09:37:39;;;;;;;20.13;15.15;;;;;;;7.04;100.00;97865.88;4994169;28;20191;-81
2022/04/01 09:40:08;;;;;;;18.20;14.38;;;;;;;6.84;100.00;97878.84;4994399;28;20203;-83
2022/04/01 09:42:36;;;;;;;20.55;15.73;;;;;;;6.69;100.00;97885.25;4994283;28;20622;-83
2022/04/01 09:45:06;;;;;;;17.10;13.85;;;;;;;6.63;100.00;97885.69;4993544;28;20237;-83
2022/04/01 09:47:37;;;;;;;19.27;15.70;;;;;;;7.13;100.00;97881.28;4994350;28;20311;-82
2022/04/01 09:50:11;;;;;;;19.13;15.55;;;;;;;7.07;100.00;97879.88;4994541;28;20192;-82
2022/04/01 09:52:38;;;;;;;20.20;16.48;;;;;;;7.08;100.00;97878.94;4994243;28;20191;-83
2022/04/01 09:55:06;;;;;;;17.17;13.98;;;;;;;6.40;100.00;97896.16;4994382;28;20203;-82
2022/04/01 09:57:34;;;;;;;19.02;15.15;;;;;;;6.19;100.00;97892.25;4994658;28;20722;-83
2022/04/01 10:00:01;;;;;;;18.13;13.95;;;;;;;6.38;100.00;97892.72;4994253;28;20207;-82
2022/04/01 10:02:30;;;;;;;21.00;15.48;;;;;;;6.72;100.00;97885.06;4993728;28;20271;-82
2022/04/01 10:04:58;;;;;;;17.38;14.05;;;;;;;6.81;100.00;97880.88;4993703;28;20198;-81
2022/04/01 10:07:26;;;;;;;15.68;13.48;;;;;;;7.32;98.55;97884.31;4994009;28;20560;-83
2022/04/01 10:09:55;;;;;;;17.23;14.23;;;;;;;7.01;100.00;97890.16;4994023;28;20622;-82
2022/04/01 10:12:26;;;;;;;16.38;13.63;;;;;;;7.41;98.01;97887.31;4993734;28;20195;-82
2022/04/01 10:14:57;;;;;;;16.55;13.55;;;;;;;7.38;95.37;97892.91;4993527;28;20205;-82
2022/04/01 10:17:30;;;;;;;16.67;13.55;;;;;;;6.77;97.32;97893.63;4993655;28;20543;-82
2022/04/01 10:19:58;;;;;;;16.05;13.20;;;;;;;7.13;95.46;97888.47;4993676;28;20285;-83
2022/04/01 10:22:27;;;;;;;16.25;12.65;;;;;;;7.73;89.34;97893.00;4993677;28;20565;-83
2022/04/01 10:25:01;;;;;;;15.02;12.38;;;;;;;7.62;90.68;97885.78;4993553;28;20588;-81
2022/04/01 10:27:36;;;;;;;15.98;13.10;;;;;;;8.24;86.35;97887.41;4993502;28;20267;-82
2022/04/01 10:30:03;;;;;;;14.63;12.20;;;;;;;7.41;86.21;97888.16;4993173;28;20188;-82
2022/04/01 10:32:38;;;;;;;13.10;11.63;;;;;;;7.47;86.81;97893.09;4993014;28;20206;-82
2022/04/01 10:35:07;;;;;;;13.98;12.35;;;;;;;7.67;85.38;97893.47;4993108;28;20212;-82
2022/04/01 10:37:35;;;;;;;15.25;13.30;;;;;;;7.64;89.04;97889.19;4993264;28;20625;-82
2022/04/01 10:40:08;;;;;;;18.35;15.20;;;;;;;7.57;92.43;97898.63;4992972;28;20273;-82
2022/04/01 10:42:37;;;;;;;15.13;12.38;;;;;;;7.13;90.40;97902.69;4993430;28;20202;-82
2022/04/01 10:45:08;;;;;;;13.55;12.02;;;;;;;6.51;91.91;97910.59;4993050;28;20291;-81
2022/04/01 10:53:41;;;;;;;16.40;13.23;;;;;;;6.78;91.78;97908.69;4993237;28;20249;-82
2022/04/01 10:56:29;;;;;;;14.95;12.73;;;;;;;6.64;88.84;97909.63;4993397;28;20234;-82
2022/04/01 10:59:10;;;;;;;14.50;12.52;;;;;;;6.23;88.99;97916.00;4998019;28;20178;-81
2022/04/01 11:01:39;;;;;;;15.85;11.82;;;;;;;6.11;87.71;97927.53;4992646;28;20567;-81
2022/04/01 11:04:29;;;;;;;13.23;11.80;;;;;;;6.73;87.80;97918.00;4992948;28;20623;-80
2022/04/01 11:06:58;;;;;;;13.77;11.10;;;;;;;7.15;83.81;97915.97;4992520;28;20183;-80
2022/04/01 11:09:42;;;;;;;14.00;10.90;;;;;;;7.32;79.88;97915.59;4994815;28;20533;-81
2022/04/01 11:12:28;;;;;;;12.18;10.88;;;;;;;7.15;80.73;97922.19;4992843;28;20278;-80
2022/04/01 11:15:12;;;;;;;12.68;11.13;;;;;;;6.94;83.76;97923.66;4993248;28;20211;-80
2022/04/01 11:18:09;;;;;;;13.93;12.48;;;;;;;6.66;84.48;97933.63;4992645;28;20616;-81
2022/04/01 11:20:39;;;;;;;13.35;11.85;;;;;;;6.55;85.74;97931.66;4969767;28;20575;-80
2022/04/01 11:23:12;;;;;;;13.88;12.30;;;;;;;6.11;86.79;97932.00;4992667;28;20183;-81
2022/04/01 11:25:54;;;;;;;13.40;11.40;;;;;;;6.04;85.14;97932.41;4992675;28;20633;-82
2022/04/01 11:28:24;;;;;;;13.07;11.63;;;;;;;6.33;87.16;97934.97;4992383;28;20191;-81
2022/04/01 11:31:15;;;;;;;12.80;11.38;;;;;;;6.40;85.87;97948.75;4991709;28;20720;-80
2022/04/01 11:33:57;;;;;;;14.30;12.57;;;;;;;6.56;85.58;97949.44;4992127;28;20653;-81
2022/04/01 11:36:27;;;;;;;13.10;11.68;;;;;;;6.64;83.58;97948.91;4992289;28;20198;-82
2022/04/01 11:38:53;;;;;;;13.75;12.30;;;;;;;6.48;83.78;97949.09;4992092;28;20298;-80
2022/04/01 11:41:20;;;;;;;13.95;12.05;;;;;;;6.60;83.55;97952.75;4992413;28;20184;-81
2022/04/01 11:43:47;;;;;;;13.35;11.52;;;;;;;6.67;82.25;97954.91;4992326;28;20199;-79